createdAt,value
2023-05-05T00:02:03.394Z,81.05
2023-05-05T00:04:29.871Z,79.74
2023-05-05T00:06:56.214Z,78.94
2023-05-05T00:09:22.832Z,79.10
2023-05-05T00:11:49.137Z,79.89
2023-05-05T00:14:15.514Z,79.42
2023-05-05T00:16:42.281Z,78.22
2023-05-05T00:19:09.097Z,82.02
2023-05-05T00:21:35.606Z,79.61
2023-05-05T00:24:01.984Z,79.61
2023-05-05T00:26:28.343Z,81.34
2023-05-05T00:28:54.692Z,82.43
2023-05-05T00:31:21.143Z,83.29
2023-05-05T00:33:47.509Z,84.00
2023-05-05T00:36:14.714Z,82.29
2023-05-05T00:38:41.126Z,82.32
2023-05-05T00:41:07.522Z,83.71
2023-05-05T00:43:33.937Z,83.34
2023-05-05T00:46:03.901Z,84.97
2023-05-05T00:48:30.576Z,85.80
2023-05-05T00:50:57.875Z,85.03
2023-05-05T00:53:26.542Z,84.59
2023-05-05T00:55:53.239Z,85.96
2023-05-05T00:58:19.843Z,87.03
2023-05-05T01:00:46.221Z,86.83
2023-05-05T01:03:15.160Z,87.51
2023-05-05T01:06:04.528Z,88.83
2023-05-05T01:08:39.427Z,87.88
2023-05-05T01:11:26.129Z,88.40
2023-05-05T01:14:17.055Z,88.92
2023-05-05T01:16:59.856Z,90.06
2023-05-05T01:20:01.105Z,88.96
2023-05-05T01:22:36.616Z,90.39
2023-05-05T01:25:15.370Z,87.76
2023-05-05T01:28:11.101Z,87.69
2023-05-05T01:30:55.749Z,88.50
2023-05-05T01:33:25.995Z,88.12
2023-05-05T01:35:55.880Z,90.63
2023-05-05T01:38:29.070Z,87.83
2023-05-05T01:41:03.590Z,88.51
2023-05-05T01:43:34.999Z,91.28
2023-05-05T01:46:02.371Z,90.14
2023-05-05T01:48:29.947Z,88.18
2023-05-05T01:50:57.610Z,89.17
2023-05-05T01:53:25.310Z,90.17
2023-05-05T01:55:52.716Z,91.82
2023-05-05T01:58:22.017Z,90.29
2023-05-05T02:00:50.088Z,91.18
2023-05-05T02:03:18.305Z,89.61
2023-05-05T02:05:49.180Z,89.27
2023-05-05T02:08:16.639Z,90.26
2023-05-05T02:10:44.762Z,92.16
2023-05-05T02:13:12.790Z,93.47
2023-05-05T02:15:40.443Z,93.99
2023-05-05T02:18:09.997Z,93.25
2023-05-05T02:20:39.906Z,92.44
2023-05-05T02:23:07.869Z,94.30
2023-05-05T02:25:41.865Z,94.96
2023-05-05T02:28:15.310Z,95.28
2023-05-05T02:30:43.018Z,96.23
2023-05-05T02:33:11.644Z,96.96
2023-05-05T02:35:40.841Z,95.79
2023-05-05T02:38:14.622Z,96.29
2023-05-05T02:40:43.346Z,97.05
2023-05-05T02:43:11.960Z,96.31
2023-05-05T02:45:38.493Z,99.07
2023-05-05T02:48:05.271Z,98.78
2023-05-05T02:50:32.107Z,97.66
2023-05-05T02:53:00.016Z,98.13
2023-05-05T02:55:43.941Z,99.08
2023-05-05T02:58:24.718Z,97.33
2023-05-05T03:01:01.815Z,98.42
2023-05-05T03:03:39.979Z,98.95
2023-05-05T03:06:18.923Z,98.86
2023-05-05T03:08:57.333Z,98.26
2023-05-05T03:11:32.917Z,99.65
2023-05-05T03:14:07.019Z,100.00
2023-05-05T03:16:35.762Z,100.00
2023-05-05T03:19:04.201Z,100.00
2023-05-05T03:21:32.475Z,100.00
2023-05-05T03:23:58.968Z,100.00
2023-05-05T03:26:25.391Z,100.00
2023-05-05T03:28:51.803Z,100.00
2023-05-05T03:31:18.729Z,100.00
2023-05-05T03:33:45.138Z,100.00
2023-05-05T03:36:11.727Z,100.00
2023-05-05T03:38:38.081Z,100.00
2023-05-05T03:41:04.400Z,100.00
2023-05-05T03:43:30.766Z,100.00
2023-05-05T03:45:57.202Z,100.00
2023-05-05T03:48:23.616Z,100.00
2023-05-05T03:50:50.559Z,100.00
2023-05-05T03:53:16.940Z,100.00
2023-05-05T03:55:43.357Z,100.00
2023-05-05T03:58:09.859Z,100.00
2023-05-05T04:00:36.280Z,100.00
2023-05-05T04:03:02.974Z,100.00
2023-05-05T04:05:29.421Z,100.00
2023-05-05T04:07:57.735Z,100.00
2023-05-05T04:10:24.038Z,100.00
2023-05-05T04:12:50.634Z,100.00
2023-05-05T04:15:16.979Z,100.00
2023-05-05T04:17:43.388Z,100.00
2023-05-05T04:20:10.184Z,100.00
2023-05-05T04:22:36.965Z,100.00
2023-05-05T04:25:03.434Z,100.00
2023-05-05T04:27:30.241Z,100.00
2023-05-05T04:29:56.963Z,100.00
2023-05-05T04:32:25.896Z,100.00
2023-05-05T04:34:52.513Z,100.00
2023-05-05T04:37:19.286Z,100.00
2023-05-05T04:39:46.543Z,100.00
2023-05-05T04:42:12.859Z,100.00
2023-05-05T04:44:39.420Z,100.00
2023-05-05T04:47:05.864Z,100.00
2023-05-05T04:49:32.367Z,100.00
2023-05-05T04:51:58.737Z,100.00
2023-05-05T04:54:25.165Z,100.00
2023-05-05T04:56:51.792Z,100.00
2023-05-05T04:59:18.178Z,100.00
2023-05-05T05:01:44.692Z,100.00
2023-05-05T05:04:11.344Z,100.00
2023-05-05T05:06:37.676Z,100.00
2023-05-05T05:09:04.085Z,100.00
2023-05-05T05:11:30.545Z,100.00
2023-05-05T05:13:56.853Z,100.00
2023-05-05T05:16:25.205Z,100.00
2023-05-05T05:18:51.594Z,100.00
2023-05-05T05:21:17.923Z,100.00
2023-05-05T05:23:44.206Z,100.00
2023-05-05T05:26:10.961Z,100.00
2023-05-05T05:28:37.339Z,100.00
2023-05-05T05:31:04.747Z,100.00
2023-05-05T05:33:31.061Z,100.00
2023-05-05T05:35:57.367Z,100.00
2023-05-05T05:38:23.747Z,100.00
2023-05-05T05:40:50.154Z,100.00
2023-05-05T05:43:16.460Z,100.00
2023-05-05T05:45:43.044Z,100.00
2023-05-05T05:48:09.485Z,100.00
2023-05-05T05:50:36.399Z,100.00
2023-05-05T05:53:03.010Z,100.00
2023-05-05T05:55:29.406Z,99.79
2023-05-05T05:57:55.866Z,98.91
2023-05-05T06:00:22.305Z,99.02
2023-05-05T06:02:48.666Z,97.43
2023-05-05T06:05:15.257Z,97.01
2023-05-05T06:07:41.616Z,96.36
2023-05-05T06:10:25.802Z,96.12
2023-05-05T06:12:53.502Z,95.07
2023-05-05T06:15:20.012Z,96.25
2023-05-05T06:17:46.470Z,96.63
2023-05-05T06:20:13.854Z,96.63
2023-05-05T06:22:40.316Z,96.79
2023-05-05T06:25:07.141Z,95.96
2023-05-05T06:27:33.433Z,94.98
2023-05-05T06:29:59.783Z,95.38
2023-05-05T06:32:26.209Z,95.11
2023-05-05T06:34:52.631Z,93.70
2023-05-05T06:37:19.018Z,93.59
2023-05-05T06:39:45.349Z,94.00
2023-05-05T06:42:11.645Z,94.11
2023-05-05T06:44:38.060Z,94.65
2023-05-05T06:47:04.569Z,94.52
2023-05-05T06:49:31.127Z,94.61
2023-05-05T06:51:57.437Z,92.64
2023-05-05T06:54:23.765Z,92.93
2023-05-05T06:56:50.185Z,91.36
2023-05-05T06:59:16.617Z,93.01
2023-05-05T07:01:43.061Z,93.12
2023-05-05T07:04:09.500Z,94.27
2023-05-05T07:06:36.090Z,90.83
2023-05-05T07:09:03.427Z,90.24
2023-05-05T07:11:29.944Z,90.20
2023-05-05T07:13:56.283Z,89.49
2023-05-05T07:16:22.664Z,89.67
2023-05-05T07:18:49.056Z,88.75
2023-05-05T07:21:15.453Z,88.72
2023-05-05T07:23:41.822Z,88.47
2023-05-05T07:26:08.475Z,88.22
2023-05-05T07:28:34.977Z,86.72
2023-05-05T07:31:01.271Z,87.29
2023-05-05T07:33:27.644Z,83.02
2023-05-05T07:35:54.033Z,82.86
2023-05-05T07:38:20.547Z,81.62
2023-05-05T07:40:46.848Z,81.62
2023-05-05T07:43:13.181Z,82.69
2023-05-05T07:45:39.602Z,80.69
2023-05-05T07:48:06.063Z,81.69
2023-05-05T07:50:32.604Z,81.91
2023-05-05T07:53:10.773Z,82.04
2023-05-05T07:55:41.289Z,83.15
2023-05-05T07:58:08.371Z,82.42
2023-05-05T08:00:34.860Z,81.47
2023-05-05T08:03:01.399Z,82.58
2023-05-05T08:05:27.998Z,81.78
2023-05-05T08:07:54.382Z,80.80
2023-05-05T08:10:22.187Z,80.14
2023-05-05T08:12:49.053Z,79.46
2023-05-05T08:15:15.423Z,78.34
2023-05-05T08:17:52.771Z,77.65
2023-05-05T08:20:20.471Z,77.47
2023-05-05T08:22:46.987Z,78.40
2023-05-05T08:25:14.082Z,79.07
2023-05-05T08:27:42.147Z,78.64
2023-05-05T08:30:09.394Z,77.85
2023-05-05T08:32:35.858Z,77.22
2023-05-05T08:35:05.819Z,76.89
2023-05-05T08:37:32.458Z,78.25
2023-05-05T08:39:58.873Z,76.37
2023-05-05T08:42:36.335Z,76.93
2023-05-05T08:45:05.330Z,76.09
2023-05-05T08:47:32.692Z,74.62
2023-05-05T08:49:59.210Z,73.26
2023-05-05T08:52:31.653Z,74.83
2023-05-05T08:55:05.907Z,72.07
2023-05-05T08:57:41.183Z,72.96
2023-05-05T09:00:10.064Z,71.49
2023-05-05T09:02:37.090Z,71.28
2023-05-05T09:05:05.348Z,73.70
2023-05-05T09:07:32.624Z,73.91
2023-05-05T09:10:00.382Z,74.17
2023-05-05T09:12:30.645Z,73.49
2023-05-05T09:14:59.271Z,73.33
2023-05-05T09:17:26.814Z,71.05
2023-05-05T09:20:10.698Z,71.02
2023-05-05T09:22:42.691Z,72.81
2023-05-05T09:25:15.021Z,70.77
2023-05-05T09:27:45.677Z,69.46
2023-05-05T09:30:16.267Z,68.81
2023-05-05T09:32:44.500Z,71.04
2023-05-05T09:35:10.959Z,67.41
2023-05-05T09:37:38.515Z,67.87
2023-05-05T09:40:05.994Z,70.61
2023-05-05T09:42:32.309Z,67.00
2023-05-05T09:44:59.895Z,66.40
2023-05-05T09:47:37.118Z,67.32
2023-05-05T09:50:04.228Z,64.42
2023-05-05T09:52:30.944Z,65.48
2023-05-05T09:54:57.485Z,62.89
2023-05-05T09:57:32.656Z,63.39
2023-05-05T10:00:04.986Z,61.86
2023-05-05T10:02:36.467Z,57.05
2023-05-05T10:05:14.244Z,54.93
2023-05-05T10:07:42.553Z,52.41
2023-05-05T10:10:16.670Z,51.30
2023-05-05T10:12:44.492Z,48.64
2023-05-05T10:15:11.937Z,49.35
2023-05-05T10:18:02.341Z,48.24
2023-05-05T10:20:33.340Z,48.27
2023-05-05T10:23:02.439Z,47.67
2023-05-05T10:25:31.327Z,47.78
2023-05-05T10:28:00.784Z,45.44
2023-05-05T10:30:33.929Z,44.41
2023-05-05T10:35:43.429Z,46.72
2023-05-05T10:38:12.545Z,43.45
2023-05-05T10:40:46.549Z,45.42
2023-05-05T10:43:14.554Z,45.67
2023-05-05T10:45:42.569Z,46.35
2023-05-05T10:48:14.468Z,44.55
2023-05-05T10:50:51.697Z,43.84
2023-05-05T10:53:20.757Z,42.88
2023-05-05T10:56:17.093Z,43.26
2023-05-05T10:58:59.159Z,43.86
2023-05-05T11:01:30.923Z,40.54
2023-05-05T11:04:26.853Z,42.62
2023-05-05T11:07:09.792Z,41.75
2023-05-05T11:09:55.096Z,41.86
2023-05-05T11:12:21.521Z,43.39
2023-05-05T11:14:47.838Z,39.97
2023-05-05T11:17:48.705Z,38.30
2023-05-05T11:20:16.889Z,38.45
2023-05-05T11:23:14.577Z,35.90
2023-05-05T11:25:44.451Z,38.03
2023-05-05T11:28:11.014Z,39.32
2023-05-05T11:30:59.035Z,38.68
2023-05-05T11:33:37.025Z,38.69
2023-05-05T11:36:06.791Z,37.58
2023-05-05T11:38:36.322Z,39.26
2023-05-05T11:41:13.496Z,39.56
2023-05-05T11:43:41.636Z,40.63
2023-05-05T11:46:12.447Z,38.17
2023-05-05T11:48:49.349Z,38.68
2023-05-05T11:51:17.168Z,39.59
2023-05-05T11:53:48.198Z,37.58
2023-05-05T11:56:20.423Z,38.00
2023-05-05T11:58:47.598Z,39.44
2023-05-05T12:01:14.623Z,35.64
2023-05-05T12:03:41.609Z,33.86
2023-05-05T12:06:08.797Z,34.27
2023-05-05T12:08:38.821Z,34.88
2023-05-05T12:11:08.148Z,34.84
2023-05-05T12:13:34.749Z,34.40
2023-05-05T12:16:16.717Z,34.24
2023-05-05T12:18:43.423Z,35.35
2023-05-05T12:21:19.257Z,34.23
2023-05-05T12:23:45.781Z,36.09
2023-05-05T12:26:29.609Z,36.05
2023-05-05T12:28:57.085Z,35.15
2023-05-05T12:31:23.527Z,35.09
2023-05-05T12:33:50.439Z,32.44
2023-05-05T12:36:17.048Z,33.64
2023-05-05T12:38:43.501Z,33.56
2023-05-05T12:41:10.002Z,32.12
2023-05-05T12:43:36.388Z,33.10
2023-05-05T12:46:10.438Z,33.46
2023-05-05T12:48:38.378Z,34.65
2023-05-05T12:51:11.721Z,32.85
2023-05-05T12:53:38.077Z,31.70
2023-05-05T12:56:04.650Z,34.73
2023-05-05T12:58:49.266Z,34.95
2023-05-05T13:01:15.631Z,34.30
2023-05-05T13:03:42.098Z,32.18
2023-05-05T13:06:22.039Z,33.05
2023-05-05T13:08:48.388Z,32.39
2023-05-05T13:11:14.742Z,33.08
2023-05-05T13:13:42.077Z,31.79
2023-05-05T13:16:08.528Z,33.65
2023-05-05T13:18:48.207Z,34.27
2023-05-05T13:21:14.653Z,33.07
2023-05-05T13:23:45.083Z,33.13
2023-05-05T13:26:13.403Z,34.22
2023-05-05T13:28:40.469Z,32.99
2023-05-05T13:31:07.531Z,32.66
2023-05-05T13:33:34.756Z,33.03
2023-05-05T13:36:02.175Z,33.90
2023-05-05T13:38:29.047Z,34.36
2023-05-05T13:40:55.409Z,33.92
2023-05-05T13:43:22.000Z,34.14
2023-05-05T13:45:48.450Z,35.17
2023-05-05T13:48:14.810Z,34.77
2023-05-05T13:50:41.127Z,34.08
2023-05-05T13:53:07.499Z,36.31
2023-05-05T13:55:33.889Z,36.45
2023-05-05T13:58:00.221Z,35.79
2023-05-05T14:00:27.731Z,35.15
2023-05-05T14:02:54.465Z,36.98
2023-05-05T14:05:21.350Z,36.40
2023-05-05T14:07:47.671Z,36.47
2023-05-05T14:10:14.332Z,36.88
2023-05-05T14:12:40.757Z,37.50
2023-05-05T14:15:08.131Z,36.02
2023-05-05T14:17:34.677Z,36.88
2023-05-05T14:20:01.049Z,37.75
2023-05-05T14:22:27.427Z,37.74
2023-05-05T14:24:53.940Z,39.71
2023-05-05T14:27:20.313Z,39.21
2023-05-05T14:29:46.663Z,37.05
2023-05-05T14:32:13.101Z,37.52
2023-05-05T14:34:39.489Z,38.37
2023-05-05T14:37:06.018Z,39.72
2023-05-05T14:39:32.390Z,39.41
2023-05-05T14:41:58.715Z,40.24
2023-05-05T14:44:25.266Z,39.65
2023-05-05T14:46:52.199Z,40.42
2023-05-05T14:49:18.582Z,38.74
2023-05-05T14:51:44.908Z,40.56
2023-05-05T14:54:24.221Z,41.12
2023-05-05T14:56:54.338Z,41.33
2023-05-05T14:59:20.754Z,41.27
2023-05-05T15:01:48.066Z,40.00
2023-05-05T15:04:14.406Z,41.67
2023-05-05T15:06:40.720Z,45.35
2023-05-05T15:09:07.127Z,47.61
2023-05-05T15:11:33.422Z,48.80
2023-05-05T15:13:59.794Z,51.97
2023-05-05T15:16:26.258Z,52.22
2023-05-05T15:18:52.704Z,52.57
2023-05-05T15:21:19.105Z,53.10
2023-05-05T15:23:45.496Z,55.66
2023-05-05T15:26:11.992Z,55.02
2023-05-05T15:28:38.368Z,55.53
2023-05-05T15:31:06.136Z,55.81
2023-05-05T15:33:33.427Z,58.83
2023-05-05T15:36:00.238Z,59.49
2023-05-05T15:38:28.897Z,59.54
2023-05-05T15:40:55.330Z,59.76
2023-05-05T15:43:21.650Z,60.92
2023-05-05T15:45:47.926Z,62.58
2023-05-05T15:48:14.293Z,63.15
2023-05-05T15:50:40.684Z,64.80
2023-05-05T15:53:06.990Z,62.87
2023-05-05T15:55:33.369Z,65.38
2023-05-05T15:57:59.721Z,63.73
2023-05-05T16:00:26.264Z,64.18
2023-05-05T16:02:52.670Z,65.46
2023-05-05T16:05:20.739Z,65.24
2023-05-05T16:07:49.078Z,65.83
2023-05-05T16:10:15.570Z,63.04
2023-05-05T16:12:41.909Z,64.50
2023-05-05T16:15:09.071Z,63.08
2023-05-05T16:17:35.792Z,63.85
2023-05-05T16:20:02.309Z,64.76
2023-05-05T16:22:28.684Z,65.52
2023-05-05T16:24:54.980Z,64.57
2023-05-05T16:27:21.670Z,65.41
2023-05-05T16:29:47.988Z,64.10
2023-05-05T16:32:14.328Z,63.87
2023-05-05T16:34:40.720Z,64.89
2023-05-05T16:37:07.060Z,63.16
2023-05-05T16:39:33.865Z,66.06
2023-05-05T16:42:00.261Z,69.35
2023-05-05T16:44:26.745Z,72.75
2023-05-05T16:46:53.010Z,72.12
2023-05-05T16:49:19.452Z,71.27
2023-05-05T16:51:45.847Z,72.98
2023-05-05T16:54:12.213Z,72.11
2023-05-05T16:56:38.547Z,71.12
2023-05-05T16:59:05.001Z,70.87
2023-05-05T17:01:31.943Z,67.78
2023-05-05T17:04:02.164Z,69.45
2023-05-05T17:06:34.362Z,69.52
2023-05-05T17:09:00.737Z,69.31
2023-05-05T17:11:27.173Z,70.75
2023-05-05T17:13:53.537Z,70.93
2023-05-05T17:16:20.064Z,70.47
2023-05-05T17:18:46.520Z,72.92
2023-05-05T17:21:12.805Z,70.45
2023-05-05T17:23:39.114Z,72.87
2023-05-05T17:26:05.441Z,72.34
2023-05-05T17:28:31.745Z,72.06
2023-05-05T17:30:59.834Z,73.13
2023-05-05T17:33:26.206Z,73.26
2023-05-05T17:35:52.831Z,74.01
2023-05-05T17:38:19.114Z,73.76
2023-05-05T17:40:45.438Z,73.89
2023-05-05T17:43:11.766Z,74.29
2023-05-05T17:45:38.200Z,74.11
2023-05-05T17:48:05.057Z,76.01
2023-05-05T17:50:31.515Z,74.73
2023-05-05T17:52:57.878Z,75.79
2023-05-05T17:55:24.221Z,75.25
2023-05-05T17:57:50.552Z,75.32
2023-05-05T18:00:18.182Z,75.76
2023-05-05T18:02:44.636Z,76.32
2023-05-05T18:05:11.338Z,76.89
2023-05-05T18:07:38.591Z,77.38
2023-05-05T18:10:06.952Z,78.67
2023-05-05T18:12:33.331Z,78.31
2023-05-05T18:15:00.415Z,77.15
2023-05-05T18:17:27.444Z,79.15
2023-05-05T18:19:53.781Z,78.39
2023-05-05T18:22:20.276Z,79.11
2023-05-05T18:24:46.881Z,78.92
2023-05-05T18:27:13.262Z,79.66
2023-05-05T18:29:39.731Z,79.76
2023-05-05T18:32:06.418Z,78.90
2023-05-05T18:34:32.981Z,79.39
2023-05-05T18:37:00.408Z,80.15
2023-05-05T18:39:26.902Z,80.81
2023-05-05T18:41:53.343Z,80.49
2023-05-05T18:44:20.107Z,80.12
2023-05-05T18:46:49.342Z,79.65
2023-05-05T18:49:16.224Z,78.83
2023-05-05T18:51:43.441Z,79.13
2023-05-05T18:54:09.833Z,79.35
2023-05-05T18:56:36.673Z,78.93
2023-05-05T18:59:03.011Z,77.88
2023-05-05T19:01:29.435Z,79.26
2023-05-05T19:03:55.847Z,79.77
2023-05-05T19:06:22.234Z,80.27
2023-05-05T19:08:48.645Z,78.03
2023-05-05T19:11:15.289Z,76.80
2023-05-05T19:13:42.053Z,78.20
2023-05-05T19:16:08.511Z,77.91
2023-05-05T19:18:34.918Z,78.31
2023-05-05T19:21:01.673Z,78.97
2023-05-05T19:23:28.027Z,78.52
2023-05-05T19:25:54.450Z,79.77
2023-05-05T19:28:21.337Z,79.55
2023-05-05T19:30:48.610Z,79.50
2023-05-05T19:33:15.767Z,78.40
2023-05-05T19:35:42.301Z,78.69
2023-05-05T19:38:10.172Z,79.41
2023-05-05T19:40:40.149Z,79.31
2023-05-05T19:43:07.290Z,78.80
2023-05-05T19:45:33.939Z,79.18
2023-05-05T19:48:03.326Z,79.70
2023-05-05T19:50:30.580Z,79.88
2023-05-05T19:52:57.795Z,80.96
2023-05-05T19:55:24.472Z,81.21
2023-05-05T19:57:50.811Z,81.36
2023-05-05T20:00:17.355Z,80.86
2023-05-05T20:02:45.136Z,81.58
2023-05-05T20:05:13.969Z,82.29
2023-05-05T20:07:41.846Z,81.22
2023-05-05T20:10:09.294Z,82.14
2023-05-05T20:12:36.012Z,81.46
2023-05-05T20:15:03.004Z,81.49
2023-05-05T20:17:29.399Z,81.34
2023-05-05T20:19:57.494Z,82.65
2023-05-05T20:22:26.288Z,82.38
2023-05-05T20:24:53.349Z,82.85
2023-05-05T20:27:20.814Z,83.82
2023-05-05T20:29:47.283Z,83.10
2023-05-05T20:32:13.759Z,83.72
2023-05-05T20:34:40.298Z,83.98
2023-05-05T20:37:06.690Z,84.26
2023-05-05T20:39:33.092Z,83.75
2023-05-05T20:41:59.407Z,85.20
2023-05-05T20:44:26.163Z,85.12
2023-05-05T20:46:52.574Z,85.23
2023-05-05T20:49:18.974Z,84.92
2023-05-05T20:51:45.284Z,86.05
2023-05-05T20:54:11.676Z,85.71
2023-05-05T20:56:38.116Z,85.40
2023-05-05T20:59:04.663Z,84.70
2023-05-05T21:01:31.155Z,85.23
2023-05-05T21:03:57.659Z,86.24
2023-05-05T21:06:24.233Z,85.24
2023-05-05T21:08:50.705Z,85.58
2023-05-05T21:11:17.074Z,85.39
2023-05-05T21:13:43.391Z,85.76
2023-05-05T21:16:11.242Z,85.88
2023-05-05T21:18:37.544Z,85.54
2023-05-05T21:21:04.081Z,86.67
2023-05-05T21:23:30.457Z,86.66
2023-05-05T21:25:56.860Z,86.59
2023-05-05T21:28:23.265Z,87.11
2023-05-05T21:31:10.413Z,86.66
2023-05-05T21:33:37.743Z,87.55
2023-05-05T21:36:04.817Z,88.15
2023-05-05T21:38:31.214Z,87.86
2023-05-05T21:40:58.535Z,87.16
2023-05-05T21:43:30.974Z,87.54
2023-05-05T21:46:04.970Z,88.23
2023-05-05T21:48:31.706Z,88.00
2023-05-05T21:50:58.052Z,88.25
2023-05-05T21:53:24.418Z,88.98
2023-05-05T21:55:50.902Z,88.63
2023-05-05T21:58:17.195Z,89.87
2023-05-05T22:00:43.604Z,88.40
2023-05-05T22:03:10.066Z,89.84
2023-05-05T22:05:36.536Z,89.38
2023-05-05T22:08:02.961Z,88.58
2023-05-05T22:10:29.257Z,88.67
2023-05-05T22:12:55.811Z,89.42
2023-05-05T22:15:25.362Z,89.83
2023-05-05T22:17:51.933Z,90.24
2023-05-05T22:20:18.267Z,91.10
2023-05-05T22:22:44.556Z,90.71
2023-05-05T22:25:11.192Z,91.63
2023-05-05T22:27:37.812Z,91.79
2023-05-05T22:30:04.915Z,91.89
2023-05-05T22:32:31.851Z,92.89
2023-05-05T22:34:58.238Z,93.59
2023-05-05T22:37:24.619Z,92.22
2023-05-05T22:39:50.893Z,92.76
2023-05-05T22:42:17.225Z,93.68
2023-05-05T22:44:43.588Z,94.33
2023-05-05T22:47:10.141Z,94.64
2023-05-05T22:49:36.599Z,95.35
2023-05-05T22:52:03.410Z,95.25
2023-05-05T22:54:29.732Z,96.00
2023-05-05T22:56:56.045Z,95.80
2023-05-05T22:59:22.373Z,95.57
2023-05-05T23:01:48.797Z,95.58
2023-05-05T23:04:15.309Z,95.30
2023-05-05T23:06:41.768Z,96.99
2023-05-05T23:09:08.092Z,97.41
2023-05-05T23:11:34.424Z,97.07
2023-05-05T23:14:00.840Z,97.98
2023-05-05T23:16:27.269Z,97.23
2023-05-05T23:18:53.710Z,96.69
2023-05-05T23:21:20.056Z,96.83
2023-05-05T23:23:46.391Z,97.69
2023-05-05T23:26:13.567Z,98.05
2023-05-05T23:28:39.918Z,98.79
2023-05-05T23:31:06.419Z,98.26
2023-05-05T23:33:32.881Z,97.80
2023-05-05T23:35:59.436Z,99.03
2023-05-05T23:38:25.807Z,97.45
2023-05-05T23:40:52.168Z,97.26
2023-05-05T23:43:18.503Z,97.99
2023-05-05T23:45:44.948Z,98.51
2023-05-05T23:48:11.924Z,98.90
2023-05-05T23:50:38.222Z,98.20
2023-05-05T23:53:04.630Z,99.45
2023-05-05T23:55:30.936Z,99.22
2023-05-05T23:57:57.300Z,99.62
